Terminal Aerodrome Forecast
Issued by NWS Shreveport, LA

Home | Current Version | Previous Version | Text Only | Print | Product List | Glossary On
Versions: 1 2 3 4 5 6 7 8 9 10 11 12 13
049
FTUS44 KSHV 172324
TAFSHV
TAF
KSHV 172324Z 1800/1824 18012KT P6SM SCT050 BKN280
     FM180400 19014G20KT P6SM SCT050
     FM180700 20017G24KT P6SM BKN020
     FM181500 24022G28KT P6SM BKN020
     FM182000 30023G30KT P6SM BKN050=

USA.gov is the U.S. government's official web portal to all federal, state and local government web resources and services.